Terminal Aerodrome Forecast
Issued by NWS Wilmington, OH

Home | Current Version | Previous Version | Text Only | Print | Product List | Glossary On
Versions: 1 2 3 4 5 6 7 8 9 10 11 12 13 14 15
000
FTUS41 KILN 212300
TAFCMH
TAF
KCMH 212337Z 2200/2224 10004KT P6SM BKN250
     FM221300 13006KT P6SM BKN030
     FM222000 13007KT P6SM SCT030 BKN080=

USA.gov is the U.S. government's official web portal to all federal, state and local government web resources and services.